createdAt,value
2024-01-11T00:04:33.358Z,4.40
2024-01-11T00:09:35.485Z,4.03
2024-01-11T00:14:37.681Z,3.95
2024-01-11T00:19:39.820Z,4.18
2024-01-11T00:24:41.979Z,4.15
2024-01-11T00:29:44.108Z,3.95
2024-01-11T00:34:46.181Z,3.92
2024-01-11T00:39:48.148Z,3.95
2024-01-11T00:44:50.133Z,3.60
2024-01-11T00:49:52.245Z,3.78
2024-01-11T00:54:54.390Z,3.78
2024-01-11T00:59:56.491Z,3.42
2024-01-11T01:04:58.659Z,3.80
2024-01-11T01:10:00.741Z,3.67
2024-01-11T01:15:02.986Z,3.20
2024-01-11T01:20:06.493Z,3.13
2024-01-11T01:25:09.011Z,2.90
2024-01-11T01:30:11.258Z,3.10
2024-01-11T01:35:13.340Z,2.83
2024-01-11T01:40:15.499Z,3.00
2024-01-11T01:45:17.770Z,2.75
2024-01-11T01:50:19.937Z,2.88
2024-01-11T01:55:22.077Z,2.22
2024-01-11T02:00:24.206Z,2.60
2024-01-11T02:05:26.406Z,2.33
2024-01-11T02:10:28.598Z,2.40
2024-01-11T02:15:30.665Z,2.80
2024-01-11T02:20:33.215Z,2.40
2024-01-11T02:25:35.444Z,2.00
2024-01-11T02:30:37.593Z,1.80
2024-01-11T02:35:40.887Z,1.98
2024-01-11T02:40:44.066Z,1.98
2024-01-11T02:45:46.128Z,2.10
2024-01-11T02:50:50.001Z,1.75
2024-01-11T02:55:52.317Z,1.90
2024-01-11T03:00:54.538Z,1.60
2024-01-11T03:05:56.793Z,1.88
2024-01-11T03:10:58.903Z,1.38
2024-01-11T03:16:01.035Z,1.50
2024-01-11T03:21:03.342Z,1.50
2024-01-11T03:26:05.530Z,1.40
2024-01-11T03:31:09.074Z,1.40
2024-01-11T03:36:11.532Z,1.40
2024-01-11T03:46:15.710Z,1.50
2024-01-11T03:51:17.791Z,1.20
2024-01-11T03:56:19.917Z,1.45
2024-01-11T04:01:22.081Z,1.50
2024-01-11T04:06:24.589Z,1.60
2024-01-11T04:16:31.757Z,1.77
2024-01-11T04:21:33.964Z,1.65
2024-01-11T04:26:36.162Z,2.03
2024-01-11T04:31:38.349Z,1.80
2024-01-11T04:36:40.613Z,1.75
2024-01-11T04:41:42.794Z,1.70
2024-01-11T04:46:45.006Z,1.92
2024-01-11T04:51:47.044Z,1.60
2024-01-11T04:56:49.227Z,1.48
2024-01-11T05:01:51.401Z,1.58
2024-01-11T05:06:53.591Z,1.38
2024-01-11T05:11:55.785Z,1.23
2024-01-11T05:16:57.859Z,1.30
2024-01-11T05:21:59.995Z,1.50
2024-01-11T05:27:02.129Z,1.27
2024-01-11T05:32:04.675Z,1.30
2024-01-11T05:37:06.877Z,1.30
2024-01-11T05:42:08.979Z,1.20
2024-01-11T05:47:11.169Z,1.17
2024-01-11T05:52:13.209Z,1.10
2024-01-11T05:57:15.191Z,1.20
2024-01-11T06:02:17.403Z,1.02
2024-01-11T06:07:19.589Z,1.10
2024-01-11T06:12:21.698Z,1.15
2024-01-11T06:17:24.010Z,1.20
2024-01-11T06:22:26.077Z,1.30
2024-01-11T06:27:28.174Z,1.17
2024-01-11T06:32:30.321Z,1.60
2024-01-11T06:37:32.532Z,1.10
2024-01-11T06:42:34.863Z,1.40
2024-01-11T06:47:37.149Z,1.40
2024-01-11T06:52:39.392Z,1.10
2024-01-11T06:57:41.543Z,1.00
2024-01-11T07:02:43.621Z,1.20
2024-01-11T07:07:45.701Z,1.33
2024-01-11T07:12:47.761Z,1.25
2024-01-11T07:17:50.038Z,1.48
2024-01-11T07:22:52.208Z,1.30
2024-01-11T07:27:54.306Z,1.38
2024-01-11T07:32:56.433Z,1.60
2024-01-11T07:37:59.609Z,1.30
2024-01-11T07:43:01.771Z,1.30
2024-01-11T07:48:04.282Z,1.30
2024-01-11T07:58:08.680Z,1.10
2024-01-11T08:08:12.715Z,1.30
2024-01-11T08:13:14.827Z,1.40
2024-01-11T08:18:19.249Z,1.50
2024-01-11T08:23:21.309Z,1.77
2024-01-11T08:28:23.412Z,1.30
2024-01-11T08:33:25.637Z,1.30
2024-01-11T08:38:27.768Z,1.30
2024-01-11T08:43:29.948Z,0.90
2024-01-11T08:48:32.076Z,0.80
2024-01-11T08:53:34.489Z,0.90
2024-01-11T08:58:36.664Z,1.08
2024-01-11T09:03:38.993Z,0.82
2024-01-11T09:13:43.401Z,1.75
2024-01-11T09:18:46.120Z,1.27
2024-01-11T09:23:48.324Z,1.63
2024-01-11T09:28:50.567Z,1.40
2024-01-11T09:33:54.300Z,1.33
2024-01-11T09:43:58.329Z,1.42
2024-01-11T09:49:00.437Z,1.60
2024-01-11T09:54:02.600Z,1.60
2024-01-11T09:59:04.704Z,1.73
2024-01-11T10:04:06.913Z,1.42
2024-01-11T10:09:09.011Z,1.50
2024-01-11T10:14:15.141Z,1.58
2024-01-11T10:19:17.428Z,1.50
2024-01-11T10:29:22.004Z,1.58
2024-01-11T10:34:27.157Z,1.70
2024-01-11T10:39:29.294Z,1.70
2024-01-11T10:44:31.406Z,1.70
2024-01-11T10:49:33.993Z,1.60
2024-01-11T10:54:36.122Z,1.65
2024-01-11T10:59:38.680Z,1.50
2024-01-11T11:04:41.832Z,1.40
2024-01-11T11:09:44.009Z,1.45
2024-01-11T11:14:46.448Z,1.33
2024-01-11T11:19:48.538Z,1.58
2024-01-11T11:25:03.604Z,1.58
2024-01-11T11:30:06.559Z,1.63
2024-01-11T11:35:08.885Z,1.52
2024-01-11T11:45:12.909Z,1.60
2024-01-11T11:55:16.957Z,1.60
2024-01-11T12:00:19.113Z,1.90
2024-01-11T12:05:21.405Z,2.03
2024-01-11T12:15:25.366Z,2.17
2024-01-11T12:20:27.402Z,2.45
2024-01-11T12:25:29.775Z,2.83
2024-01-11T12:35:34.074Z,1.83
2024-01-11T12:40:36.783Z,2.40
2024-01-11T12:45:38.943Z,2.30
2024-01-11T12:50:41.507Z,2.47
2024-01-11T12:55:51.757Z,2.25
2024-01-11T13:00:59.671Z,1.70
2024-01-11T13:11:03.971Z,1.90
2024-01-11T13:16:06.176Z,2.30
2024-01-11T13:21:08.462Z,2.65
2024-01-11T13:26:10.683Z,2.35
2024-01-11T13:36:14.671Z,2.50
2024-01-11T13:41:16.840Z,2.45
2024-01-11T13:51:20.851Z,2.70
2024-01-11T14:01:26.534Z,3.28
2024-01-11T14:11:30.858Z,2.22
2024-01-11T14:16:32.870Z,2.08
2024-01-11T14:21:35.242Z,2.42
2024-01-11T14:31:39.333Z,2.75
2024-01-11T14:36:41.493Z,2.60
2024-01-11T14:46:45.578Z,2.55
2024-01-11T14:56:49.506Z,2.50
2024-01-11T15:01:51.831Z,2.75
2024-01-11T15:11:55.904Z,2.30
2024-01-11T15:16:59.521Z,2.33
2024-01-11T15:22:01.949Z,2.25
2024-01-11T15:27:04.283Z,2.33
2024-01-11T15:32:07.012Z,2.30
2024-01-11T15:37:09.187Z,2.42
2024-01-11T15:47:13.204Z,2.25
2024-01-11T15:52:15.463Z,2.47
2024-01-11T15:57:19.358Z,2.33
2024-01-11T16:02:22.053Z,2.05
2024-01-11T16:07:24.109Z,2.30
2024-01-11T16:17:30.444Z,1.98
2024-01-11T16:22:33.605Z,1.90
2024-01-11T16:27:35.785Z,2.13
2024-01-11T16:37:39.816Z,1.55
2024-01-11T16:42:42.180Z,2.20
2024-01-11T16:47:44.726Z,1.70
2024-01-11T16:52:46.930Z,1.85
2024-01-11T16:57:48.930Z,1.83
2024-01-11T17:02:51.018Z,1.83
2024-01-11T17:07:54.138Z,2.00
2024-01-11T17:12:56.487Z,2.03
2024-01-11T17:17:58.940Z,2.50
2024-01-11T17:23:01.142Z,2.10
2024-01-11T17:28:03.326Z,1.85
2024-01-11T17:33:05.679Z,2.10
2024-01-11T17:38:07.992Z,2.10
2024-01-11T17:43:10.158Z,1.40
2024-01-11T17:53:17.569Z,1.90
2024-01-11T17:58:21.345Z,1.48
2024-01-11T18:03:23.770Z,1.67
2024-01-11T18:08:25.900Z,1.50
2024-01-11T18:18:29.914Z,1.45
2024-01-11T18:23:32.223Z,1.20
2024-01-11T18:28:34.335Z,1.88
2024-01-11T18:33:36.618Z,1.40
2024-01-11T18:38:38.818Z,1.35
2024-01-11T18:43:40.909Z,1.70
2024-01-11T18:48:43.196Z,2.00
2024-01-11T18:53:45.412Z,2.55
2024-01-11T18:58:47.646Z,2.45
2024-01-11T19:03:49.910Z,1.92
2024-01-11T19:08:52.002Z,2.40
2024-01-11T19:13:54.199Z,1.80
2024-01-11T19:18:56.431Z,1.98
2024-01-11T19:23:58.690Z,2.10
2024-01-11T19:29:00.929Z,2.03
2024-01-11T19:34:03.031Z,1.90
2024-01-11T19:39:05.081Z,1.85
2024-01-11T19:44:07.287Z,1.77
2024-01-11T19:49:10.291Z,2.10
2024-01-11T19:54:12.619Z,1.90
2024-01-11T19:59:14.797Z,2.65
2024-01-11T20:04:17.074Z,1.75
2024-01-11T20:09:19.331Z,1.85
2024-01-11T20:14:21.583Z,1.50
2024-01-11T20:19:23.668Z,1.77
2024-01-11T20:24:25.712Z,1.42
2024-01-11T20:34:29.706Z,1.70
2024-01-11T20:39:32.151Z,1.63
2024-01-11T20:44:37.269Z,1.80
2024-01-11T20:49:39.611Z,1.80
2024-01-11T20:54:41.794Z,1.70
2024-01-11T20:59:44.475Z,1.55
2024-01-11T21:04:46.506Z,1.73
2024-01-11T21:14:50.318Z,1.60
2024-01-11T21:19:52.527Z,1.60
2024-01-11T21:24:57.111Z,1.35
2024-01-11T21:29:59.420Z,1.50
2024-01-11T21:35:01.589Z,1.45
2024-01-11T21:40:05.678Z,1.50
2024-01-11T21:45:08.055Z,1.70
2024-01-11T21:50:10.743Z,1.50
2024-01-11T21:55:12.939Z,1.58
2024-01-11T22:00:15.488Z,1.73
2024-01-11T22:05:17.756Z,1.73
2024-01-11T22:10:19.866Z,1.73
2024-01-11T22:15:21.974Z,1.20
2024-01-11T22:20:24.216Z,1.83
2024-01-11T22:25:26.694Z,1.60
2024-01-11T22:30:28.867Z,1.73
2024-01-11T22:35:31.046Z,2.17
2024-01-11T22:40:33.126Z,1.40
2024-01-11T22:45:35.474Z,2.00
2024-01-11T22:50:37.754Z,1.73
2024-01-11T22:55:39.862Z,1.80
2024-01-11T23:00:42.049Z,2.03
2024-01-11T23:05:44.227Z,1.52
2024-01-11T23:10:46.335Z,2.10
2024-01-11T23:15:48.508Z,2.35
2024-01-11T23:20:50.602Z,1.90
2024-01-11T23:25:52.730Z,1.98
2024-01-11T23:30:54.832Z,1.85
2024-01-11T23:35:57.143Z,1.83
2024-01-11T23:40:59.284Z,2.25
2024-01-11T23:46:01.386Z,2.08
2024-01-11T23:51:04.255Z,1.92
2024-01-11T23:56:06.728Z,2.58
